Time;durP1;ratioP1;P1;durP2;ratioP2;P2;SDS_P1;SDS_P2;PMS_P1;PMS_P2;Temp;Humidity;BMP_temperature;BMP_pressure;BME280_temperature;BME280_humidity;BME280_pressure;Samples;Min_cycle;Max_cycle;Signal;HPM_P1;HPM_P2
2022/09/12 00:01:11;;;;;;;22.13;20.17;;;11.90;99.90;;;;;;5053966;28;20536;-68
2022/09/12 00:03:39;;;;;;;25.43;22.90;;;11.90;99.90;;;;;;5055451;28;20467;-67
2022/09/12 00:06:12;;;;;;;21.63;19.83;;;11.80;99.90;;;;;;5056121;28;20462;-70
2022/09/12 00:08:39;;;;;;;21.90;19.80;;;11.80;99.90;;;;;;5055983;28;20906;-68
2022/09/12 00:11:10;;;;;;;21.70;19.90;;;11.70;99.90;;;;;;5065103;28;20459;-70
2022/09/12 00:13:40;;;;;;;23.43;21.37;;;11.70;99.90;;;;;;5061314;28;20462;-67
2022/09/12 00:16:13;;;;;;;23.50;21.10;;;11.70;99.90;;;;;;5062873;28;20503;-70
2022/09/12 00:18:40;;;;;;;21.83;20.03;;;11.70;99.90;;;;;;5059534;28;20455;-70
2022/09/12 00:21:08;;;;;;;23.10;20.80;;;11.60;99.90;;;;;;5060575;28;20451;-68
2022/09/12 00:23:35;;;;;;;23.10;20.90;;;11.60;99.90;;;;;;5057106;28;20459;-69
2022/09/12 00:26:05;;;;;;;22.40;20.30;;;11.60;99.90;;;;;;5056530;28;20460;-68
2022/09/12 00:28:36;;;;;;;21.20;19.20;;;11.60;99.90;;;;;;5060390;28;20463;-69
2022/09/12 00:31:05;;;;;;;23.67;21.50;;;11.50;99.90;;;;;;5057287;28;20486;-68
2022/09/12 00:33:34;;;;;;;27.33;23.20;;;11.50;99.90;;;;;;5055419;28;20467;-71
2022/09/12 00:36:05;;;;;;;24.20;21.90;;;11.60;99.90;;;;;;5057704;28;20483;-68
2022/09/12 00:38:32;;;;;;;22.83;20.80;;;11.60;99.90;;;;;;5059677;28;20459;-70
2022/09/12 00:40:59;;;;;;;23.77;21.67;;;11.60;99.90;;;;;;5052958;28;20464;-69
2022/09/12 00:43:40;;;;;;;22.20;19.87;;;11.50;99.90;;;;;;5054426;28;20470;-71
2022/09/12 00:46:17;;;;;;;35.33;23.40;;;11.50;99.90;;;;;;5065475;28;20475;-69
2022/09/12 00:48:49;;;;;;;25.03;22.53;;;11.50;99.90;;;;;;5063891;28;20456;-69
2022/09/12 00:51:18;;;;;;;25.00;22.43;;;11.60;99.90;;;;;;5056916;28;20768;-69
2022/09/12 00:53:48;;;;;;;30.10;25.60;;;11.60;99.90;;;;;;5057590;28;20494;-70
2022/09/12 00:56:17;;;;;;;24.77;22.57;;;11.60;99.90;;;;;;5054228;28;20480;-68
2022/09/12 00:58:51;;;;;;;22.90;20.57;;;11.60;99.90;;;;;;5063296;28;20470;-69
2022/09/12 01:01:17;;;;;;;24.63;22.13;;;11.60;99.90;;;;;;5059238;28;20460;-69
2022/09/12 01:03:45;;;;;;;24.80;22.37;;;11.50;99.90;;;;;;5054659;28;20474;-69
2022/09/12 01:06:18;;;;;;;23.27;21.00;;;11.40;99.90;;;;;;5065893;28;20467;-69
2022/09/12 01:08:47;;;;;;;22.27;19.33;;;11.30;99.90;;;;;;5059686;28;20473;-69
2022/09/12 01:11:15;;;;;;;23.10;20.87;;;11.30;99.90;;;;;;5056060;28;20490;-68
2022/09/12 01:13:43;;;;;;;21.80;19.80;;;11.30;99.90;;;;;;5060965;28;20482;-69
2022/09/12 01:16:11;;;;;;;24.80;20.10;;;11.30;99.90;;;;;;5057334;28;20557;-69
2022/09/12 01:18:51;;;;;;;23.73;21.03;;;11.30;99.90;;;;;;5059457;28;20466;-69
2022/09/12 01:21:31;;;;;;;23.80;21.60;;;11.30;99.90;;;;;;5059597;28;20460;-69
2022/09/12 01:24:34;;;;;;;22.37;20.20;;;11.30;99.90;;;;;;5061744;28;20466;-71
2022/09/12 01:27:38;;;;;;;23.43;20.93;;;11.30;99.90;;;;;;5059490;28;20569;-69
2022/09/12 01:30:37;;;;;;;25.53;20.30;;;11.20;99.90;;;;;;5053000;28;20462;-70
2022/09/12 01:33:21;;;;;;;21.80;19.83;;;11.20;99.90;;;;;;5043102;28;20524;-69
2022/09/12 01:35:59;;;;;;;35.13;21.33;;;11.20;99.90;;;;;;5062255;28;21068;-69
2022/09/12 01:38:35;;;;;;;26.20;23.37;;;11.20;99.90;;;;;;5056667;28;20463;-71
2022/09/12 01:41:11;;;;;;;41.30;27.27;;;11.20;99.90;;;;;;5055982;28;20823;-69
2022/09/12 01:43:47;;;;;;;28.87;22.67;;;11.20;99.90;;;;;;5058895;28;20499;-69
2022/09/12 01:46:17;;;;;;;32.83;22.97;;;11.30;99.90;;;;;;5056480;28;20470;-70
2022/09/12 01:48:50;;;;;;;25.80;23.00;;;11.20;99.90;;;;;;5056003;28;20707;-69
2022/09/12 01:51:22;;;;;;;24.97;22.07;;;11.20;99.90;;;;;;5060949;28;20917;-70
2022/09/12 01:53:54;;;;;;;26.60;21.27;;;11.30;99.90;;;;;;5057306;28;20455;-69
2022/09/12 01:56:25;;;;;;;24.23;21.77;;;11.40;99.90;;;;;;5058622;28;20496;-69
2022/09/12 01:58:59;;;;;;;24.97;21.80;;;11.40;99.90;;;;;;5057605;28;20464;-70
2022/09/12 02:01:28;;;;;;;21.90;19.60;;;11.30;99.90;;;;;;5060090;28;20857;-71
2022/09/12 02:04:02;;;;;;;23.70;21.20;;;11.20;99.90;;;;;;5058380;28;20479;-69
2022/09/12 02:06:32;;;;;;;23.70;21.13;;;11.20;99.90;;;;;;5061063;28;20460;-71
2022/09/12 02:09:06;;;;;;;25.90;21.67;;;11.20;99.90;;;;;;5059900;28;20959;-71
2022/09/12 02:11:36;;;;;;;21.53;19.40;;;11.20;99.90;;;;;;5059950;28;20961;-69
2022/09/12 02:14:06;;;;;;;21.73;19.63;;;11.10;99.90;;;;;;5062834;28;20464;-70
2022/09/12 02:16:39;;;;;;;23.30;20.80;;;11.10;99.90;;;;;;5063674;28;20504;-69
2022/09/12 02:19:12;;;;;;;23.67;21.37;;;11.10;99.90;;;;;;5058778;28;20471;-69
2022/09/12 02:21:44;;;;;;;34.93;26.43;;;11.10;99.90;;;;;;5058870;28;20455;-69
2022/09/12 02:24:15;;;;;;;22.40;20.00;;;11.10;99.90;;;;;;5060820;28;20463;-69
2022/09/12 02:26:47;;;;;;;23.27;20.50;;;11.10;99.90;;;;;;5062708;28;20493;-70
2022/09/12 02:29:15;;;;;;;27.50;20.37;;;11.00;99.90;;;;;;5055579;28;20471;-69
2022/09/12 02:31:46;;;;;;;26.90;20.97;;;11.00;99.90;;;;;;5053439;28;20567;-69
2022/09/12 02:34:32;;;;;;;22.70;20.47;;;10.90;99.90;;;;;;5055137;28;20558;-69
2022/09/12 02:37:07;;;;;;;27.93;22.73;;;10.90;99.90;;;;;;5053447;28;20490;-69
2022/09/12 02:39:34;;;;;;;32.57;23.23;;;10.90;99.90;;;;;;5056488;28;20837;-69
2022/09/12 02:42:02;;;;;;;30.40;23.77;;;10.90;99.90;;;;;;5059318;28;20452;-69
2022/09/12 02:44:31;;;;;;;30.30;23.60;;;10.90;99.90;;;;;;5053577;28;20460;-70
2022/09/12 02:47:03;;;;;;;36.77;25.93;;;11.00;99.90;;;;;;5055812;28;20473;-69
2022/09/12 02:49:33;;;;;;;31.63;24.73;;;10.90;99.90;;;;;;5055469;28;20464;-70
2022/09/12 02:52:02;;;;;;;29.27;24.13;;;11.00;99.90;;;;;;5060328;28;20497;-69
2022/09/12 02:54:30;;;;;;;23.20;20.93;;;11.00;99.90;;;;;;5054759;28;20825;-68
2022/09/12 02:56:58;;;;;;;24.10;20.60;;;11.00;99.90;;;;;;5057318;28;20482;-69
2022/09/12 02:59:25;;;;;;;22.90;20.53;;;10.90;99.90;;;;;;5053473;28;20471;-68
2022/09/12 03:02:13;;;;;;;24.77;22.17;;;10.90;99.90;;;;;;5054998;28;20487;-68
2022/09/12 03:04:51;;;;;;;27.43;22.40;;;10.80;99.90;;;;;;5061631;28;20483;-68
2022/09/12 03:07:31;;;;;;;28.90;24.23;;;10.80;99.90;;;;;;5053068;28;20468;-70
2022/09/12 03:10:06;;;;;;;33.53;23.53;;;10.90;99.90;;;;;;5052112;28;20847;-68
2022/09/12 03:12:47;;;;;;;40.07;28.00;;;10.90;99.90;;;;;;5055600;28;20499;-68
2022/09/12 03:15:28;;;;;;;39.60;26.53;;;11.00;99.90;;;;;;5056507;28;20493;-68
2022/09/12 03:18:06;;;;;;;38.93;27.77;;;11.00;99.90;;;;;;5053912;28;21055;-68
2022/09/12 03:20:45;;;;;;;35.80;25.93;;;11.00;99.90;;;;;;5053194;28;20796;-69
2022/09/12 03:23:23;;;;;;;42.00;27.70;;;11.00;99.90;;;;;;5056430;28;21087;-67
2022/09/12 03:25:54;;;;;;;36.17;24.67;;;11.00;99.90;;;;;;5053043;28;20466;-67
2022/09/12 03:28:22;;;;;;;43.47;26.20;;;11.00;99.90;;;;;;5056278;28;20459;-68
2022/09/12 03:30:53;;;;;;;42.77;26.50;;;11.00;99.90;;;;;;5054587;28;20459;-69
2022/09/12 03:33:22;;;;;;;35.10;24.87;;;11.00;99.90;;;;;;5056839;28;20459;-69
2022/09/12 03:35:52;;;;;;;32.53;24.40;;;11.00;99.90;;;;;;5054169;28;20487;-68
2022/09/12 03:38:19;;;;;;;38.17;24.33;;;11.00;99.90;;;;;;5053609;28;20495;-68
2022/09/12 03:40:48;;;;;;;37.90;27.83;;;10.90;99.90;;;;;;5057704;28;20462;-68
2022/09/12 03:43:15;;;;;;;64.47;36.10;;;10.90;99.90;;;;;;5060186;28;21055;-68
2022/09/12 03:45:42;;;;;;;54.80;32.50;;;11.00;99.90;;;;;;5056658;28;20467;-68
2022/09/12 03:48:08;;;;;;;70.37;36.13;;;11.10;99.90;;;;;;5062421;28;20482;-68
2022/09/12 03:50:37;;;;;;;65.60;36.20;;;11.20;99.90;;;;;;5055477;28;20471;-68
2022/09/12 03:53:05;;;;;;;76.70;41.60;;;11.40;99.90;;;;;;5057089;28;20471;-67
2022/09/12 03:55:32;;;;;;;54.73;34.40;;;11.50;99.90;;;;;;5051543;28;20488;-68
2022/09/12 03:58:00;;;;;;;51.60;34.53;;;11.60;99.90;;;;;;5059744;28;20706;-68
2022/09/12 04:00:26;;;;;;;59.37;35.67;;;11.70;99.90;;;;;;5057162;28;20957;-68
2022/09/12 04:02:55;;;;;;;65.50;36.43;;;11.90;99.90;;;;;;5052420;28;20466;-68
2022/09/12 04:05:23;;;;;;;68.63;39.57;;;12.00;99.90;;;;;;5052913;28;20717;-69
2022/09/12 04:07:50;;;;;;;56.97;35.10;;;12.10;99.90;;;;;;5022374;28;20466;-68
2022/09/12 04:10:18;;;;;;;54.53;32.80;;;12.10;99.90;;;;;;5024139;28;20517;-68
2022/09/12 04:12:45;;;;;;;52.43;32.97;;;12.10;99.90;;;;;;5025167;28;20871;-69
2022/09/12 04:15:12;;;;;;;47.63;32.97;;;12.10;99.90;;;;;;5025466;28;20514;-68
2022/09/12 04:17:38;;;;;;;64.60;34.03;;;12.00;99.90;;;;;;5026909;28;20963;-67
2022/09/12 04:20:06;;;;;;;47.47;33.53;;;11.90;99.90;;;;;;5026555;28;20455;-68
2022/09/12 04:22:33;;;;;;;54.93;34.13;;;11.80;99.90;;;;;;5025331;28;20506;-69
2022/09/12 04:24:59;;;;;;;60.57;35.87;;;11.70;99.90;;;;;;5026327;28;20467;-68
2022/09/12 04:27:27;;;;;;;63.93;38.17;;;11.80;99.90;;;;;;5026188;28;20467;-69
2022/09/12 04:29:55;;;;;;;55.60;37.57;;;11.70;99.90;;;;;;5026540;28;20741;-68
2022/09/12 04:32:22;;;;;;;56.80;37.37;;;11.80;99.90;;;;;;5027415;28;20493;-67
2022/09/12 04:34:49;;;;;;;61.07;38.90;;;11.70;99.90;;;;;;5026295;28;20467;-68
2022/09/12 04:37:15;;;;;;;59.83;36.77;;;11.80;99.90;;;;;;5025389;28;21016;-68
2022/09/12 04:39:43;;;;;;;66.23;39.67;;;11.80;99.90;;;;;;5025570;28;20466;-69
2022/09/12 04:42:09;;;;;;;62.43;37.67;;;11.80;99.90;;;;;;5026916;28;21356;-69
2022/09/12 04:44:37;;;;;;;51.93;37.20;;;11.90;99.90;;;;;;5026036;28;22352;-69
2022/09/12 04:47:04;;;;;;;68.57;40.00;;;11.80;99.90;;;;;;5025050;28;20866;-68
2022/09/12 04:49:31;;;;;;;59.23;37.83;;;11.90;99.90;;;;;;5026850;28;20467;-69
2022/09/12 04:51:59;;;;;;;74.07;41.67;;;12.00;99.90;;;;;;5025763;28;20471;-68
2022/09/12 04:54:26;;;;;;;70.50;42.37;;;12.00;99.90;;;;;;5029896;28;20459;-70
2022/09/12 04:56:53;;;;;;;72.27;40.87;;;12.10;99.90;;;;;;5028683;28;20498;-69
2022/09/12 04:59:21;;;;;;;60.77;39.90;;;12.10;99.90;;;;;;5029756;28;20463;-69
2022/09/12 05:01:50;;;;;;;57.90;37.53;;;12.10;99.90;;;;;;5027824;28;20484;-68
2022/09/12 05:04:17;;;;;;;61.13;39.17;;;12.10;99.90;;;;;;5030432;28;20483;-69
2022/09/12 05:06:46;;;;;;;60.00;38.90;;;12.10;99.90;;;;;;5030331;28;20468;-68
2022/09/12 05:09:14;;;;;;;60.00;37.57;;;12.20;99.90;;;;;;5030112;28;20525;-68
2022/09/12 05:11:43;;;;;;;74.40;41.47;;;12.20;99.90;;;;;;5029860;28;20902;-69
2022/09/12 05:14:10;;;;;;;66.80;42.30;;;12.20;99.90;;;;;;5028680;28;20815;-69
2022/09/12 05:16:37;;;;;;;68.53;40.00;;;12.30;99.90;;;;;;5030060;28;20600;-69
2022/09/12 05:19:06;;;;;;;58.10;39.37;;;12.30;99.90;;;;;;5030690;28;20470;-68
2022/09/12 05:21:33;;;;;;;53.10;37.70;;;12.30;99.90;;;;;;5028953;28;20460;-70
2022/09/12 05:24:01;;;;;;;58.30;38.93;;;12.30;99.90;;;;;;5031149;28;20470;-68
2022/09/12 05:26:28;;;;;;;58.23;38.40;;;12.40;99.90;;;;;;5030877;28;20476;-69
2022/09/12 05:28:55;;;;;;;66.23;38.73;;;12.40;99.90;;;;;;5030229;28;20462;-69
2022/09/12 05:31:23;;;;;;;64.30;40.07;;;12.50;99.90;;;;;;5030298;28;20716;-69
2022/09/12 05:33:53;;;;;;;62.00;40.83;;;12.60;99.90;;;;;;5030929;28;20471;-69
2022/09/12 05:36:23;;;;;;;63.33;39.60;;;12.70;99.90;;;;;;5030998;28;21367;-68
2022/09/12 05:38:50;;;;;;;63.80;39.03;;;12.80;99.90;;;;;;5030209;28;20816;-69
2022/09/12 05:41:19;;;;;;;63.30;39.67;;;12.90;99.90;;;;;;5029062;28;20463;-69
2022/09/12 05:43:47;;;;;;;88.20;41.40;;;13.00;99.90;;;;;;5029673;28;20469;-69
2022/09/12 05:46:15;;;;;;;71.60;42.27;;;13.10;99.90;;;;;;5028689;28;20476;-69
2022/09/12 05:48:44;;;;;;;74.93;42.50;;;13.20;99.90;;;;;;5030272;28;20969;-69
2022/09/12 05:51:16;;;;;;;69.03;41.40;;;13.30;99.90;;;;;;5028878;28;20448;-68
2022/09/12 05:53:45;;;;;;;68.83;40.63;;;13.40;99.90;;;;;;5030608;28;20532;-69
2022/09/12 05:56:14;;;;;;;63.33;41.27;;;13.50;99.90;;;;;;5029564;28;23081;-70
2022/09/12 05:58:42;;;;;;;56.33;38.90;;;13.50;99.90;;;;;;5030152;28;20463;-69
2022/09/12 06:01:11;;;;;;;68.40;39.13;;;13.60;99.90;;;;;;5028793;28;21026;-69
2022/09/12 06:03:41;;;;;;;60.27;37.07;;;13.60;99.90;;;;;;5028652;28;22505;-69
2022/09/12 06:06:12;;;;;;;55.87;38.40;;;13.60;99.90;;;;;;5029171;28;20602;-69
2022/09/12 06:08:39;;;;;;;58.27;38.50;;;13.80;99.90;;;;;;5031045;28;20559;-70
2022/09/12 06:11:08;;;;;;;66.70;40.97;;;13.80;99.90;;;;;;5029151;28;20541;-69
2022/09/12 06:13:38;;;;;;;57.97;40.00;;;13.90;99.90;;;;;;5026835;28;20868;-67
2022/09/12 06:16:08;;;;;;;62.43;38.10;;;14.00;99.90;;;;;;5026520;28;20507;-70
2022/09/12 06:18:36;;;;;;;63.63;39.10;;;14.10;99.90;;;;;;5027883;28;20516;-68
2022/09/12 06:21:04;;;;;;;52.33;35.90;;;14.20;99.90;;;;;;5029219;28;20831;-68
2022/09/12 06:23:31;;;;;;;63.87;37.40;;;14.30;99.90;;;;;;5028010;28;21095;-70
2022/09/12 06:25:58;;;;;;;60.67;37.30;;;14.30;99.90;;;;;;5029391;28;21079;-68
2022/09/12 06:28:26;;;;;;;56.47;37.50;;;14.40;99.90;;;;;;5029680;28;20587;-70
2022/09/12 06:30:53;;;;;;;58.83;38.00;;;14.50;99.90;;;;;;5029913;28;20966;-69
2022/09/12 06:33:20;;;;;;;62.63;36.57;;;14.50;99.90;;;;;;5027339;28;20472;-68
2022/09/12 06:35:47;;;;;;;57.80;38.70;;;14.60;99.90;;;;;;5028606;28;21433;-69
2022/09/12 06:38:14;;;;;;;54.77;36.33;;;14.70;99.90;;;;;;5028783;28;21239;-68
2022/09/12 06:40:43;;;;;;;58.40;35.53;;;14.90;99.90;;;;;;5027329;28;20463;-67
2022/09/12 06:43:12;;;;;;;60.10;34.63;;;14.90;99.90;;;;;;5026846;28;20558;-66
2022/09/12 06:45:47;;;;;;;57.90;35.00;;;15.00;99.90;;;;;;5028313;28;20980;-69
2022/09/12 06:48:15;;;;;;;43.07;31.30;;;15.10;99.90;;;;;;5027676;28;21250;-67
2022/09/12 06:50:41;;;;;;;56.13;34.80;;;15.10;99.90;;;;;;5027967;28;20460;-68
2022/09/12 06:53:08;;;;;;;54.40;33.57;;;15.10;99.90;;;;;;5028739;28;20471;-67
2022/09/12 06:55:35;;;;;;;48.57;34.50;;;15.20;99.90;;;;;;5029213;28;20468;-69
2022/09/12 06:58:02;;;;;;;56.90;33.37;;;15.30;99.90;;;;;;5029797;28;20535;-69
2022/09/12 07:00:31;;;;;;;56.40;33.40;;;15.40;99.90;;;;;;5028580;28;20987;-68
2022/09/12 07:02:59;;;;;;;50.53;34.00;;;15.50;99.90;;;;;;5028785;28;20976;-68
2022/09/12 07:05:26;;;;;;;56.73;33.00;;;15.60;99.90;;;;;;5028428;28;20486;-68
2022/09/12 07:07:53;;;;;;;46.23;30.53;;;15.70;99.90;;;;;;5028516;28;20499;-68
2022/09/12 07:10:21;;;;;;;48.63;32.20;;;15.80;99.90;;;;;;5029222;28;20492;-67
2022/09/12 07:12:48;;;;;;;49.30;30.47;;;16.00;99.90;;;;;;5026512;28;20475;-69
2022/09/12 07:15:15;;;;;;;50.23;31.87;;;15.90;99.90;;;;;;5023601;28;20610;-68
2022/09/12 07:17:41;;;;;;;54.67;32.10;;;15.90;99.90;;;;;;5026933;28;20582;-69
2022/09/12 07:20:10;;;;;;;44.23;32.60;;;16.10;99.90;;;;;;5027033;28;20459;-68
2022/09/12 07:22:37;;;;;;;51.30;33.47;;;16.20;99.90;;;;;;5027544;28;20990;-69
2022/09/12 07:25:05;;;;;;;42.20;30.43;;;16.30;99.90;;;;;;5026180;28;20474;-69
2022/09/12 07:27:31;;;;;;;44.60;31.23;;;16.40;99.90;;;;;;5026502;28;20470;-68
2022/09/12 07:29:59;;;;;;;44.70;30.47;;;16.30;99.90;;;;;;5024337;28;20468;-69
2022/09/12 07:32:26;;;;;;;39.47;31.60;;;16.40;99.90;;;;;;5025245;28;20735;-68
2022/09/12 07:34:54;;;;;;;47.87;31.70;;;16.70;99.90;;;;;;5025293;28;20965;-68
2022/09/12 07:37:22;;;;;;;45.50;31.57;;;16.80;99.90;;;;;;5023973;28;21019;-67
2022/09/12 07:39:49;;;;;;;45.40;33.97;;;16.90;99.90;;;;;;5022511;28;20464;-68
2022/09/12 07:42:16;;;;;;;37.83;31.10;;;17.00;99.90;;;;;;5025653;28;20466;-69
2022/09/12 07:44:44;;;;;;;35.40;29.27;;;17.20;99.90;;;;;;5026028;28;20479;-68
2022/09/12 07:47:11;;;;;;;38.60;30.43;;;17.40;99.90;;;;;;5025500;28;20488;-68
2022/09/12 07:49:38;;;;;;;39.00;30.23;;;17.50;99.90;;;;;;5026014;28;20474;-68
2022/09/12 07:52:05;;;;;;;40.87;30.70;;;17.40;99.90;;;;;;5025656;28;20493;-67
2022/09/12 07:54:33;;;;;;;33.03;29.63;;;17.60;99.90;;;;;;5025337;28;20679;-69
2022/09/12 07:57:01;;;;;;;37.10;30.10;;;17.90;99.90;;;;;;5042104;28;20846;-67
2022/09/12 07:59:28;;;;;;;39.00;30.90;;;17.80;99.90;;;;;;5050535;28;20579;-67
2022/09/12 08:01:54;;;;;;;35.93;30.77;;;17.90;99.90;;;;;;5050126;28;20562;-66
2022/09/12 08:04:21;;;;;;;33.20;29.30;;;18.00;99.90;;;;;;5039422;28;20570;-68
2022/09/12 08:06:48;;;;;;;35.17;29.13;;;17.90;99.90;;;;;;5037411;28;20479;-67
2022/09/12 08:09:16;;;;;;;38.00;29.63;;;17.90;99.90;;;;;;5043500;28;20629;-68
2022/09/12 08:11:44;;;;;;;31.97;28.70;;;17.70;99.90;;;;;;5025306;28;20456;-67
2022/09/12 08:14:11;;;;;;;35.60;30.07;;;17.60;99.90;;;;;;5026587;28;20995;-68
2022/09/12 08:16:38;;;;;;;36.10;30.47;;;17.60;99.90;;;;;;5025459;28;20502;-67
2022/09/12 08:19:05;;;;;;;32.77;28.20;;;17.70;99.90;;;;;;5025571;28;20456;-67
2022/09/12 08:21:34;;;;;;;37.73;30.57;;;17.80;99.90;;;;;;5026055;28;22164;-67
2022/09/12 08:24:02;;;;;;;33.40;27.60;;;17.80;99.90;;;;;;5025998;28;20460;-67
2022/09/12 08:26:29;;;;;;;31.27;28.13;;;17.90;99.90;;;;;;5026772;28;21071;-67
2022/09/12 08:28:58;;;;;;;38.50;29.13;;;18.00;99.90;;;;;;5029726;28;21414;-69
2022/09/12 08:31:27;;;;;;;35.60;30.03;;;18.20;99.90;;;;;;5029857;28;20498;-67
2022/09/12 08:33:56;;;;;;;34.03;29.40;;;18.30;99.90;;;;;;5027426;28;20463;-68
2022/09/12 08:36:25;;;;;;;31.83;26.93;;;18.30;99.90;;;;;;5025158;28;20781;-70
2022/09/12 08:38:55;;;;;;;32.60;27.27;;;18.40;99.90;;;;;;5045793;28;20454;-68
2022/09/12 08:41:29;;;;;;;30.13;27.20;;;18.60;99.90;;;;;;5051005;28;20525;-69
2022/09/12 08:44:11;;;;;;;29.37;26.13;;;18.70;99.90;;;;;;5054420;28;20472;-68
2022/09/12 08:46:48;;;;;;;29.57;26.47;;;18.80;99.90;;;;;;5054239;28;20467;-70
2022/09/12 08:49:28;;;;;;;29.60;26.77;;;18.90;99.90;;;;;;5042798;28;20455;-69
2022/09/12 08:51:57;;;;;;;29.77;26.73;;;19.10;99.90;;;;;;5053160;28;20487;-70
2022/09/12 08:54:27;;;;;;;40.93;28.37;;;19.20;99.90;;;;;;5031166;28;21124;-68
2022/09/12 08:57:00;;;;;;;29.27;26.47;;;19.40;99.90;;;;;;5028216;28;20951;-69
2022/09/12 08:59:38;;;;;;;28.87;26.17;;;19.50;99.90;;;;;;5026404;28;20470;-68
2022/09/12 09:02:21;;;;;;;27.87;25.40;;;19.60;99.90;;;;;;5027406;28;20551;-70
2022/09/12 09:04:51;;;;;;;27.93;25.30;;;19.60;99.90;;;;;;5028372;28;22776;-68
2022/09/12 09:07:36;;;;;;;27.17;24.67;;;19.60;99.90;;;;;;5027045;28;20872;-70
2022/09/12 09:10:17;;;;;;;25.73;23.53;;;19.90;99.90;;;;;;5028778;28;20483;-70
2022/09/12 09:12:52;;;;;;;30.37;25.00;;;20.30;99.90;;;;;;5028391;28;21275;-69
2022/09/12 09:15:43;;;;;;;28.33;25.30;;;20.40;99.90;;;;;;5028730;28;20495;-69
2022/09/12 09:18:16;;;;;;;30.17;27.00;;;20.80;99.90;;;;;;5029290;28;21049;-69
2022/09/12 09:20:49;;;;;;;27.57;25.27;;;21.10;99.90;;;;;;5029167;28;20455;-70
2022/09/12 09:23:22;;;;;;;26.47;24.37;;;21.80;99.90;;;;;;5028714;28;20464;-68
2022/09/12 09:25:55;;;;;;;25.80;23.10;;;22.40;99.90;;;;;;5029399;28;20532;-69
2022/09/12 09:28:25;;;;;;;27.57;25.10;;;23.50;99.90;;;;;;5028137;28;20459;-71
2022/09/12 09:30:54;;;;;;;25.70;23.57;;;24.40;99.90;;;;;;5025943;28;20872;-70
2022/09/12 09:33:23;;;;;;;26.00;23.60;;;25.20;99.90;;;;;;5027566;28;20464;-69
2022/09/12 09:35:59;;;;;;;26.33;24.23;;;25.10;99.90;;;;;;5029760;28;20472;-69
2022/09/12 09:38:37;;;;;;;24.43;22.53;;;25.20;99.90;;;;;;5028845;28;20577;-69
2022/09/12 09:41:17;;;;;;;27.77;25.07;;;25.60;99.90;;;;;;5030279;28;20454;-69
2022/09/12 09:43:44;;;;;;;26.70;24.33;;;26.10;99.90;;;;;;5029710;28;20475;-71
2022/09/12 09:46:13;;;;;;;26.03;23.93;;;26.20;99.90;;;;;;5029747;28;20456;-69
2022/09/12 09:48:43;;;;;;;27.17;24.63;;;26.30;99.90;;;;;;5030248;28;21026;-70
2022/09/12 09:51:11;;;;;;;25.63;23.27;;;26.50;99.90;;;;;;5033008;28;20870;-69
2022/09/12 09:53:46;;;;;;;26.23;24.23;;;27.50;99.90;;;;;;5032036;28;20467;-71
2022/09/12 09:56:26;;;;;;;24.90;22.70;;;27.60;99.90;;;;;;5026909;28;20845;-69
2022/09/12 09:58:53;;;;;;;25.60;23.30;;;27.90;99.90;;;;;;5028361;28;21701;-69
2022/09/12 10:01:21;;;;;;;24.97;23.37;;;27.80;99.90;;;;;;5027423;28;20487;-69
2022/09/12 10:03:51;;;;;;;24.97;23.07;;;27.90;99.90;;;;;;5026931;28;20459;-68
2022/09/12 10:06:26;;;;;;;23.40;21.30;;;28.10;99.90;;;;;;5028452;28;20638;-70
2022/09/12 10:09:06;;;;;;;24.37;22.47;;;28.60;99.90;;;;;;5027641;28;21133;-71
2022/09/12 10:11:33;;;;;;;24.80;22.90;;;28.30;99.90;;;;;;5027071;28;20533;-68
2022/09/12 10:14:00;;;;;;;23.70;21.90;;;28.50;99.90;;;;;;5028266;28;20533;-68
2022/09/12 10:16:30;;;;;;;22.00;20.30;;;28.50;99.90;;;;;;5027020;28;21002;-70
2022/09/12 10:18:58;;;;;;;21.90;20.30;;;28.70;99.90;;;;;;5027753;28;21455;-70
2022/09/12 10:21:30;;;;;;;22.90;21.40;;;29.20;99.90;;;;;;5025712;28;20489;-70
2022/09/12 10:24:05;;;;;;;22.17;20.67;;;29.10;99.90;;;;;;5027336;28;20471;-68
2022/09/12 10:26:36;;;;;;;22.10;20.70;;;28.70;99.90;;;;;;5026970;28;20464;-68
2022/09/12 10:29:14;;;;;;;21.33;20.13;;;29.10;99.40;;;;;;5027626;28;21184;-67
2022/09/12 10:31:50;;;;;;;20.80;19.00;;;29.40;99.60;;;;;;5029664;28;22925;-69
2022/09/12 10:34:29;;;;;;;19.83;18.80;;;28.90;97.30;;;;;;5026818;28;20550;-68
2022/09/12 10:37:02;;;;;;;20.27;18.97;;;28.80;97.00;;;;;;5028001;28;20472;-67
2022/09/12 10:39:31;;;;;;;19.07;17.97;;;29.10;97.40;;;;;;5027082;28;20713;-70
2022/09/12 10:41:58;;;;;;;20.83;19.50;;;29.40;96.90;;;;;;5047142;28;20863;-71
2022/09/12 10:44:27;;;;;;;20.47;18.97;;;29.90;95.60;;;;;;5025963;28;21091;-69
2022/09/12 10:46:56;;;;;;;19.70;18.40;;;30.10;93.40;;;;;;5037797;28;20547;-68
2022/09/12 10:49:26;;;;;;;21.20;19.70;;;29.90;92.90;;;;;;5049074;28;20495;-70
2022/09/12 10:51:55;;;;;;;19.90;18.70;;;30.00;92.90;;;;;;5045680;28;20466;-69
2022/09/12 10:54:24;;;;;;;19.47;18.37;;;30.60;92.90;;;;;;5052644;28;20484;-69
2022/09/12 10:57:20;;;;;;;19.03;18.00;;;30.50;92.00;;;;;;5034247;28;20451;-70
2022/09/12 11:00:09;;;;;;;17.67;16.77;;;30.50;91.30;;;;;;5025914;28;20468;-68
2022/09/12 11:02:57;;;;;;;17.30;16.40;;;30.80;90.40;;;;;;5026783;28;20498;-70
2022/09/12 11:05:49;;;;;;;18.70;17.70;;;31.20;87.70;;;;;;5026538;28;20486;-69
2022/09/12 11:08:31;;;;;;;18.47;17.23;;;31.30;85.30;;;;;;5024946;28;20516;-68
2022/09/12 11:11:05;;;;;;;19.60;18.27;;;31.80;81.70;;;;;;5025740;28;20986;-69
2022/09/12 11:13:57;;;;;;;19.17;18.07;;;31.50;82.00;;;;;;5025068;28;20471;-70
2022/09/12 11:16:33;;;;;;;18.73;17.63;;;31.60;81.10;;;;;;5026762;28;20487;-71
2022/09/12 11:19:37;;;;;;;19.87;18.10;;;31.80;81.10;;;;;;5026030;28;20466;-70
2022/09/12 11:22:29;;;;;;;17.87;17.00;;;32.50;77.40;;;;;;4986017;28;20459;-71
2022/09/12 11:25:12;;;;;;;19.43;17.90;;;32.50;74.30;;;;;;5024765;28;20475;-70
2022/09/12 11:27:51;;;;;;;18.50;17.30;;;32.50;75.80;;;;;;5025831;28;20833;-69
2022/09/12 11:30:18;;;;;;;19.67;18.17;;;32.60;75.50;;;;;;5025935;28;20479;-68
2022/09/12 11:33:07;;;;;;;19.23;18.03;;;32.40;74.10;;;;;;5025419;28;20452;-69
2022/09/12 11:35:43;;;;;;;18.50;17.60;;;32.90;73.20;;;;;;5024924;28;20456;-69
2022/09/12 11:38:43;;;;;;;18.50;17.60;;;32.40;69.20;;;;;;5025621;28;20596;-69
2022/09/12 11:41:17;;;;;;;18.77;17.70;;;32.70;68.40;;;;;;5025642;28;20553;-70
2022/09/12 11:43:50;;;;;;;18.00;17.00;;;32.90;68.00;;;;;;5027200;28;20830;-71
2022/09/12 11:46:22;;;;;;;18.53;17.43;;;32.60;67.30;;;;;;5027257;28;20586;-69
2022/09/12 11:48:54;;;;;;;18.60;17.70;;;32.30;64.80;;;;;;5026424;28;20594;-68
2022/09/12 11:51:26;;;;;;;17.90;17.00;;;32.80;64.90;;;;;;5026565;28;20451;-70
2022/09/12 11:54:06;;;;;;;18.13;17.23;;;32.10;65.90;;;;;;5023323;28;20460;-72
2022/09/12 11:56:38;;;;;;;17.80;16.90;;;32.20;65.60;;;;;;5037607;28;20455;-71
2022/09/12 11:59:13;;;;;;;17.07;16.07;;;33.30;65.00;;;;;;5053389;28;20455;-70
2022/09/12 12:01:43;;;;;;;18.00;17.00;;;33.60;64.30;;;;;;5051999;28;20487;-70
2022/09/12 12:04:12;;;;;;;18.03;17.03;;;33.60;63.50;;;;;;5052790;28;20498;-70
2022/09/12 12:06:50;;;;;;;17.30;16.40;;;33.30;63.30;;;;;;5030616;28;21047;-70
2022/09/12 12:09:18;;;;;;;16.83;16.03;;;33.70;63.40;;;;;;5030039;28;20900;-71
2022/09/12 12:11:49;;;;;;;17.73;16.63;;;34.30;63.70;;;;;;5030196;28;20630;-70
2022/09/12 12:14:19;;;;;;;16.80;15.80;;;34.00;59.20;;;;;;5029782;28;20562;-69
2022/09/12 12:16:47;;;;;;;17.20;16.37;;;34.20;61.40;;;;;;5030369;28;20460;-70
2022/09/12 12:19:37;;;;;;;18.10;16.90;;;34.50;58.00;;;;;;5029877;28;20468;-70
2022/09/12 12:22:15;;;;;;;17.20;16.30;;;34.20;59.40;;;;;;5028956;28;20866;-73
2022/09/12 12:24:57;;;;;;;16.93;16.10;;;34.30;58.50;;;;;;5028614;28;21781;-69
2022/09/12 12:27:45;;;;;;;16.57;15.70;;;35.00;56.00;;;;;;5028968;28;21141;-69
2022/09/12 12:30:54;;;;;;;16.53;15.63;;;34.80;57.80;;;;;;5029701;28;20454;-70
2022/09/12 12:33:53;;;;;;;15.87;15.13;;;34.90;55.40;;;;;;5005014;28;20455;-70
2022/09/12 12:36:43;;;;;;;17.13;16.17;;;35.00;54.30;;;;;;4988432;28;21323;-67
2022/09/12 12:39:46;;;;;;;17.43;16.53;;;35.10;55.20;;;;;;5055154;28;20467;-68
2022/09/12 12:43:03;;;;;;;16.80;15.93;;;35.00;54.20;;;;;;5053359;28;20875;-71
2022/09/12 12:46:09;;;;;;;17.47;16.23;;;35.10;55.70;;;;;;5053794;28;20468;-68
2022/09/12 12:49:08;;;;;;;17.30;16.30;;;35.20;53.50;;;;;;5030140;28;20538;-68
2022/09/12 12:51:38;;;;;;;17.00;16.20;;;35.40;52.20;;;;;;5029932;28;20475;-68
2022/09/12 12:54:26;;;;;;;17.03;16.23;;;34.50;53.80;;;;;;5029668;28;20464;-67